Time;durP1;ratioP1;P1;durP2;ratioP2;P2;SDS_P1;SDS_P2;PMS_P1;PMS_P2;Temp;Humidity;BMP_temperature;BMP_pressure;BME280_temperature;BME280_humidity;BME280_pressure;Samples;Min_cycle;Max_cycle;Signal;HPM_P1;HPM_P2
2022/11/22 00:02:10;;;;;;;14.57;5.68;;;;;;;6.00;100.00;99088.75;5053115;28;20031;-50
2022/11/22 00:04:35;;;;;;;12.30;5.50;;;;;;;5.99;100.00;99082.63;5043435;28;20021;-51
2022/11/22 00:07:01;;;;;;;11.43;5.65;;;;;;;6.00;100.00;99073.75;5053158;28;20160;-54
2022/11/22 00:09:26;;;;;;;12.07;5.88;;;;;;;6.00;100.00;99079.03;5051222;28;20115;-53
2022/11/22 00:11:51;;;;;;;12.18;5.45;;;;;;;5.99;100.00;99072.09;5043247;28;20033;-51
2022/11/22 00:14:16;;;;;;;10.48;5.55;;;;;;;5.99;100.00;99068.63;5049713;28;20040;-52
2022/11/22 00:16:43;;;;;;;10.63;5.05;;;;;;;5.98;100.00;99070.44;5046867;28;20438;-50
2022/11/22 00:19:08;;;;;;;13.63;5.30;;;;;;;6.00;100.00;99078.22;5052506;28;20108;-50
2022/11/22 00:21:34;;;;;;;11.90;5.43;;;;;;;6.01;100.00;99080.72;5052550;28;20021;-53
2022/11/22 00:23:59;;;;;;;11.27;5.97;;;;;;;6.00;100.00;99080.84;5039147;28;20532;-51
2022/11/22 00:26:24;;;;;;;11.82;5.30;;;;;;;6.00;100.00;99078.22;5048073;28;20388;-51
2022/11/22 00:28:49;;;;;;;11.85;4.93;;;;;;;5.98;100.00;99073.06;5049743;28;20053;-51
2022/11/22 00:31:15;;;;;;;13.80;4.75;;;;;;;5.96;100.00;99074.97;5048534;28;20499;-50
2022/11/22 00:33:40;;;;;;;8.13;4.70;;;;;;;5.96;100.00;99082.03;5052476;28;20499;-54
2022/11/22 00:36:06;;;;;;;10.85;4.65;;;;;;;5.95;100.00;99078.56;5052535;28;20103;-50
2022/11/22 00:38:31;;;;;;;10.93;5.00;;;;;;;5.94;100.00;99079.53;5044217;28;20593;-50
2022/11/22 00:40:56;;;;;;;10.13;4.65;;;;;;;5.91;100.00;99078.00;5049459;28;20025;-53
2022/11/22 00:43:21;;;;;;;13.50;4.88;;;;;;;5.89;100.00;99085.19;5049546;28;20036;-50
2022/11/22 00:45:47;;;;;;;12.27;4.88;;;;;;;5.87;100.00;99076.56;5051949;28;20095;-51
2022/11/22 00:48:12;;;;;;;12.23;4.35;;;;;;;5.84;100.00;99078.63;5051037;28;20052;-50
2022/11/22 00:50:38;;;;;;;10.52;4.80;;;;;;;5.82;100.00;99073.50;5042755;28;20033;-50
2022/11/22 00:53:03;;;;;;;15.50;5.15;;;;;;;5.81;100.00;99073.63;5051923;28;20068;-50
2022/11/22 00:55:28;;;;;;;7.95;4.22;;;;;;;5.78;100.00;99079.16;5052053;28;20429;-51
2022/11/22 00:57:53;;;;;;;10.80;4.60;;;;;;;5.74;100.00;99082.06;5050729;28;20053;-50
2022/11/22 01:00:19;;;;;;;13.90;4.60;;;;;;;5.72;100.00;99073.44;5052302;28;20075;-49
2022/11/22 01:02:44;;;;;;;12.93;4.10;;;;;;;5.68;100.00;99079.94;5051380;28;20508;-51
2022/11/22 01:05:09;;;;;;;10.35;4.30;;;;;;;5.67;100.00;99070.38;5049960;28;20024;-50
2022/11/22 01:07:34;;;;;;;10.45;4.22;;;;;;;5.65;100.00;99068.84;5051537;28;20300;-50
2022/11/22 01:10:00;;;;;;;14.52;4.32;;;;;;;5.61;100.00;99076.16;5052118;28;20491;-50
2022/11/22 01:12:25;;;;;;;8.98;4.30;;;;;;;5.56;100.00;99071.28;5038074;28;20052;-52
2022/11/22 01:14:50;;;;;;;12.07;4.70;;;;;;;5.54;100.00;99075.00;5042622;28;20045;-50
2022/11/22 01:17:16;;;;;;;10.85;4.25;;;;;;;5.50;100.00;99084.13;5051353;28;20072;-51
2022/11/22 01:19:41;;;;;;;14.15;4.45;;;;;;;5.46;100.00;99096.72;5047274;28;20032;-49
2022/11/22 01:22:07;;;;;;;9.60;4.38;;;;;;;5.45;100.00;99086.31;5046165;28;20284;-51
2022/11/22 01:24:32;;;;;;;13.07;4.10;;;;;;;5.43;100.00;99096.13;5051320;28;20031;-52
2022/11/22 01:26:57;;;;;;;7.85;3.80;;;;;;;5.41;100.00;99092.78;5051377;28;20626;-50
2022/11/22 01:29:22;;;;;;;15.23;4.03;;;;;;;5.37;100.00;99086.94;5047114;28;20047;-50
2022/11/22 01:31:48;;;;;;;10.88;3.80;;;;;;;5.34;100.00;99087.19;5051189;28;20028;-50
2022/11/22 01:34:13;;;;;;;14.90;4.13;;;;;;;5.32;100.00;99091.75;5051337;28;20052;-50
2022/11/22 01:36:38;;;;;;;16.60;4.47;;;;;;;5.30;100.00;99086.63;5047339;28;20467;-52
2022/11/22 01:39:03;;;;;;;18.63;4.45;;;;;;;5.28;100.00;99085.91;5050852;28;20047;-49
2022/11/22 01:41:29;;;;;;;14.70;3.92;;;;;;;5.27;100.00;99093.94;5050992;28;20025;-50
2022/11/22 01:43:54;;;;;;;16.25;4.05;;;;;;;5.25;100.00;99107.22;5051121;28;20394;-51
2022/11/22 01:46:36;;;;;;;14.57;4.10;;;;;;;5.25;100.00;99109.03;5048344;28;20025;-50
2022/11/22 01:49:11;;;;;;;17.33;4.18;;;;;;;5.19;100.00;99099.84;5041687;28;20060;-50
2022/11/22 01:51:41;;;;;;;11.60;4.03;;;;;;;5.18;100.00;99106.06;5050057;28;20437;-49
2022/11/22 01:54:15;;;;;;;20.20;4.28;;;;;;;5.17;100.00;99113.09;5051129;28;20044;-50
2022/11/22 01:56:45;;;;;;;15.10;3.90;;;;;;;5.16;100.00;99110.59;5049627;28;20113;-50
2022/11/22 01:59:15;;;;;;;16.48;4.88;;;;;;;5.13;100.00;99108.22;5048680;28;20454;-52
2022/11/22 02:01:40;;;;;;;16.58;3.65;;;;;;;5.14;100.00;99112.53;5049889;28;20055;-50
2022/11/22 02:04:09;;;;;;;17.52;3.80;;;;;;;5.15;100.00;99114.22;5045238;28;20108;-50
2022/11/22 02:06:45;;;;;;;18.13;3.60;;;;;;;5.13;100.00;99110.84;5050400;28;20037;-50
2022/11/22 02:09:11;;;;;;;19.90;4.75;;;;;;;5.13;100.00;99108.22;5046925;28;20057;-50
2022/11/22 02:11:42;;;;;;;12.70;3.88;;;;;;;5.13;100.00;99118.75;5042236;28;20052;-51
2022/11/22 02:14:08;;;;;;;15.15;3.92;;;;;;;5.11;100.00;99118.91;5047057;28;20053;-50
2022/11/22 02:16:34;;;;;;;14.82;3.58;;;;;;;5.09;100.00;99118.16;5045029;28;20032;-51
2022/11/22 02:19:00;;;;;;;15.13;3.42;;;;;;;5.11;100.00;99125.94;5050388;28;20021;-53
2022/11/22 02:21:25;;;;;;;15.00;3.45;;;;;;;5.08;100.00;99126.19;5042657;28;20127;-50
2022/11/22 02:24:08;;;;;;;16.08;4.30;;;;;;;5.10;100.00;99132.19;5050310;28;20059;-50
2022/11/22 02:26:33;;;;;;;16.50;3.83;;;;;;;5.07;100.00;99127.16;5050420;28;20029;-51
2022/11/22 02:29:04;;;;;;;21.58;3.50;;;;;;;5.08;100.00;99134.06;5047950;28;20021;-50
2022/11/22 02:31:44;;;;;;;14.48;3.42;;;;;;;5.07;100.00;99135.88;5043508;28;20040;-51
2022/11/22 02:34:10;;;;;;;21.17;3.65;;;;;;;5.05;100.00;99140.44;5045271;28;20059;-52
2022/11/22 02:36:49;;;;;;;19.13;3.95;;;;;;;5.04;100.00;99136.13;5050157;28;20033;-51
2022/11/22 02:39:19;;;;;;;16.23;3.20;;;;;;;5.04;100.00;99137.94;5043978;28;20059;-50
2022/11/22 02:41:45;;;;;;;18.80;3.85;;;;;;;5.03;100.00;99136.25;5038195;28;20040;-51
2022/11/22 02:44:11;;;;;;;18.02;3.78;;;;;;;5.01;100.00;99128.47;5050495;28;20025;-50
2022/11/22 02:46:48;;;;;;;17.20;3.40;;;;;;;4.99;100.00;99128.59;5050871;28;20101;-49
2022/11/22 02:49:16;;;;;;;15.57;3.67;;;;;;;4.98;100.00;99136.66;5046599;28;20394;-49
2022/11/22 02:51:41;;;;;;;15.63;3.53;;;;;;;4.95;100.00;99129.81;5042488;28;20387;-49
2022/11/22 02:54:07;;;;;;;18.33;3.60;;;;;;;4.92;100.00;99140.59;5054797;28;20032;-50
2022/11/22 02:56:32;;;;;;;11.45;3.67;;;;;;;4.90;100.00;99144.31;5054222;28;20082;-51
2022/11/22 02:58:57;;;;;;;14.43;3.50;;;;;;;4.89;100.00;99147.91;5053257;28;20021;-50
2022/11/22 03:01:22;;;;;;;19.30;4.00;;;;;;;4.87;100.00;99140.13;5053814;28;20025;-50
2022/11/22 03:03:48;;;;;;;18.98;3.25;;;;;;;4.86;100.00;99142.88;5054180;28;20497;-50
2022/11/22 03:06:13;;;;;;;15.63;3.30;;;;;;;4.83;100.00;99143.97;5045687;28;20032;-50
2022/11/22 03:08:38;;;;;;;18.08;3.67;;;;;;;4.81;100.00;99140.59;5053931;28;20024;-50
2022/11/22 03:11:03;;;;;;;13.25;3.83;;;;;;;4.80;100.00;99146.84;5049892;28;20131;-51
2022/11/22 03:13:29;;;;;;;17.92;4.13;;;;;;;4.78;100.00;99148.72;5036236;28;20050;-52
2022/11/22 03:15:54;;;;;;;21.73;3.50;;;;;;;4.75;100.00;99162.16;5051379;28;20107;-50
2022/11/22 03:18:19;;;;;;;16.45;3.50;;;;;;;4.73;100.00;99164.91;5054100;28;20214;-53
2022/11/22 03:20:44;;;;;;;22.35;3.78;;;;;;;4.71;100.00;99169.44;5049274;28;20025;-50
2022/11/22 03:23:10;;;;;;;20.10;3.95;;;;;;;4.69;100.00;99158.19;5053621;28;20498;-50
2022/11/22 03:25:36;;;;;;;19.30;3.72;;;;;;;4.67;100.00;99168.00;5053424;28;20079;-52
2022/11/22 03:28:02;;;;;;;17.15;3.13;;;;;;;4.63;100.00;99167.44;5046745;28;20041;-50
2022/11/22 03:30:27;;;;;;;15.43;3.67;;;;;;;4.62;100.00;99170.16;5053527;28;20372;-52
2022/11/22 03:32:52;;;;;;;15.30;3.53;;;;;;;4.59;100.00;99170.41;5053498;28;20115;-51
2022/11/22 03:35:18;;;;;;;21.15;3.50;;;;;;;4.54;100.00;99165.50;5053222;28;20029;-50
2022/11/22 03:37:43;;;;;;;15.90;3.35;;;;;;;4.52;100.00;99164.78;5043873;28;20558;-51
2022/11/22 03:40:08;;;;;;;16.40;3.90;;;;;;;4.48;100.00;99166.00;5053462;28;20025;-50
2022/11/22 03:42:34;;;;;;;12.80;3.03;;;;;;;4.45;100.00;99171.50;5046279;28;20043;-51
2022/11/22 03:44:59;;;;;;;15.18;3.55;;;;;;;4.43;100.00;99162.91;5037157;28;20025;-50
2022/11/22 03:47:24;;;;;;;16.50;3.80;;;;;;;4.41;100.00;99164.78;5036524;28;20033;-50
2022/11/22 03:49:49;;;;;;;20.20;4.32;;;;;;;4.37;100.00;99164.19;5042281;28;20026;-51
2022/11/22 03:52:15;;;;;;;15.90;3.50;;;;;;;4.34;100.00;99167.06;5054712;28;20166;-53
2022/11/22 03:54:40;;;;;;;13.23;3.80;;;;;;;4.32;100.00;99173.41;5042223;28;20037;-51
2022/11/22 03:57:05;;;;;;;15.73;3.40;;;;;;;4.30;100.00;99167.41;5054533;28;20078;-54
2022/11/22 03:59:30;;;;;;;21.60;3.63;;;;;;;4.28;100.00;99178.06;5053220;28;20028;-54
2022/11/22 04:01:56;;;;;;;17.80;3.78;;;;;;;4.27;100.00;99179.00;5042775;28;20429;-54
2022/11/22 04:04:21;;;;;;;17.17;3.92;;;;;;;4.24;100.00;99180.06;5048914;28;20495;-53
2022/11/22 04:06:47;;;;;;;15.93;3.17;;;;;;;4.20;100.00;99165.50;5054513;28;20032;-50
2022/11/22 04:09:12;;;;;;;19.35;4.35;;;;;;;4.19;100.00;99174.34;5053958;28;20040;-50
2022/11/22 04:11:37;;;;;;;14.50;3.47;;;;;;;4.15;100.00;99172.09;5048013;28;20022;-50
2022/11/22 04:16:46;;;;;;;17.85;3.60;;;;;;;4.10;100.00;99195.22;5037640;28;20067;-52
2022/11/22 04:19:12;;;;;;;18.88;4.30;;;;;;;4.08;100.00;99200.63;5042566;28;20447;-51
2022/11/22 04:21:37;;;;;;;17.90;4.63;;;;;;;4.06;100.00;99207.75;5052037;28;20028;-54
2022/11/22 04:26:52;;;;;;;16.67;4.55;;;;;;;4.02;100.00;99211.59;5054005;28;20387;-53
2022/11/22 04:29:19;;;;;;;21.27;4.43;;;;;;;4.00;100.00;99211.69;5052503;28;20041;-51
2022/11/22 04:34:28;;;;;;;16.40;3.53;;;;;;;3.96;100.00;99206.78;5051314;28;20032;-51
2022/11/22 04:36:54;;;;;;;20.70;4.30;;;;;;;3.93;100.00;99196.50;5052377;28;20033;-51
2022/11/22 04:39:19;;;;;;;17.30;4.15;;;;;;;3.89;100.00;99204.63;5053286;28;20029;-52
2022/11/22 04:41:44;;;;;;;16.15;3.50;;;;;;;3.87;100.00;99200.44;5048756;28;20376;-53
2022/11/22 04:46:55;;;;;;;16.77;3.72;;;;;;;3.83;100.00;99199.84;5053970;28;20056;-54
2022/11/22 04:49:21;;;;;;;18.88;3.92;;;;;;;3.82;100.00;99202.56;5049928;28;20479;-51
2022/11/22 04:54:30;;;;;;;17.30;3.22;;;;;;;3.77;100.00;99208.16;5034619;28;20115;-51
2022/11/22 04:56:55;;;;;;;16.00;3.88;;;;;;;3.76;100.00;99209.09;5047864;28;20048;-52
2022/11/22 04:59:20;;;;;;;14.90;3.53;;;;;;;3.75;100.00;99212.72;5064532;28;20036;-50
2022/11/22 05:01:45;;;;;;;15.60;3.25;;;;;;;3.73;100.00;99219.88;5053472;28;20540;-52
2022/11/22 05:04:11;;;;;;;18.58;3.75;;;;;;;3.70;100.00;99214.84;5046348;28;20545;-51
2022/11/22 05:06:36;;;;;;;15.82;3.58;;;;;;;3.68;100.00;99216.72;5047216;28;20043;-52
2022/11/22 05:09:01;;;;;;;13.30;3.47;;;;;;;3.66;100.00;99226.50;5051522;28;20037;-51
2022/11/22 05:11:27;;;;;;;18.63;3.63;;;;;;;3.64;100.00;99213.50;5052975;28;20115;-52
2022/11/22 05:13:52;;;;;;;19.75;3.63;;;;;;;3.63;100.00;99216.22;5052576;28;20084;-52
2022/11/22 05:16:17;;;;;;;11.63;4.05;;;;;;;3.60;100.00;99212.06;5050967;28;20482;-54
2022/11/22 05:18:42;;;;;;;18.27;3.30;;;;;;;3.59;100.00;99218.25;5052931;28;20041;-51
2022/11/22 05:21:11;;;;;;;18.08;3.25;;;;;;;3.58;100.00;99220.97;5052777;28;20024;-53
2022/11/22 05:23:54;;;;;;;18.00;3.60;;;;;;;3.59;100.00;99220.88;5052841;28;20087;-52
2022/11/22 05:26:21;;;;;;;12.98;3.13;;;;;;;3.56;100.00;99220.25;5048937;28;20487;-53
2022/11/22 05:28:46;;;;;;;12.55;3.22;;;;;;;3.54;100.00;99217.75;5052520;28;20061;-51
2022/11/22 05:31:15;;;;;;;13.23;3.25;;;;;;;3.52;100.00;99212.59;5052592;28;20069;-51
2022/11/22 05:33:42;;;;;;;16.35;3.70;;;;;;;3.51;100.00;99218.81;5049417;28;20037;-53
2022/11/22 05:36:08;;;;;;;11.30;3.55;;;;;;;3.50;100.00;99206.63;5049538;28;20223;-51
2022/11/22 05:38:34;;;;;;;7.70;2.83;;;;;;;3.49;100.00;99209.38;5052431;28;20535;-52
2022/11/22 05:41:04;;;;;;;13.10;3.92;;;;;;;3.47;100.00;99219.16;5044337;28;20029;-52
2022/11/22 05:43:30;;;;;;;11.65;3.08;;;;;;;3.44;100.00;99204.47;5052219;28;20070;-51
2022/11/22 05:46:23;;;;;;;10.48;3.03;;;;;;;3.44;100.00;99214.97;5050197;28;20029;-51
2022/11/22 05:48:48;;;;;;;13.98;3.45;;;;;;;3.43;100.00;99225.56;5051835;28;20120;-52
2022/11/22 05:51:16;;;;;;;14.02;3.20;;;;;;;3.41;100.00;99224.84;5048095;28;20056;-51
2022/11/22 05:53:43;;;;;;;16.67;3.72;;;;;;;3.37;100.00;99211.13;5039963;28;20455;-51
2022/11/22 05:56:11;;;;;;;13.88;3.20;;;;;;;3.34;100.00;99200.84;5042413;28;20033;-51
2022/11/22 05:58:37;;;;;;;13.02;3.05;;;;;;;3.34;100.00;99204.28;5052083;28;20112;-52
2022/11/22 06:01:04;;;;;;;16.02;3.25;;;;;;;3.33;100.00;99194.75;5049148;28;20108;-51
2022/11/22 06:03:29;;;;;;;18.25;3.47;;;;;;;3.34;100.00;99200.84;5050720;28;20471;-52
2022/11/22 06:05:54;;;;;;;14.15;3.10;;;;;;;3.32;100.00;99202.75;5051880;28;20025;-51
2022/11/22 06:08:20;;;;;;;15.52;2.90;;;;;;;3.31;100.00;99206.31;5048973;28;20025;-51
2022/11/22 06:10:45;;;;;;;13.95;3.00;;;;;;;3.27;100.00;99210.13;5051764;28;20029;-50
2022/11/22 06:13:10;;;;;;;14.63;3.55;;;;;;;3.24;100.00;99205.09;5051687;28;20024;-51
2022/11/22 06:15:35;;;;;;;17.25;3.38;;;;;;;3.23;100.00;99204.25;5052083;28;20045;-51
2022/11/22 06:18:01;;;;;;;9.82;3.03;;;;;;;3.20;100.00;99209.72;5048274;28;20033;-50
2022/11/22 06:20:26;;;;;;;12.50;3.17;;;;;;;3.19;100.00;99208.03;5051818;28;20112;-51
2022/11/22 06:22:51;;;;;;;14.52;2.88;;;;;;;3.18;100.00;99206.38;5051399;28;20041;-51
2022/11/22 06:25:17;;;;;;;13.43;3.45;;;;;;;3.17;100.00;99216.97;5048576;28;20033;-52
2022/11/22 06:27:42;;;;;;;12.80;2.85;;;;;;;3.15;100.00;99219.72;5051660;28;20024;-52
2022/11/22 06:30:08;;;;;;;14.75;3.67;;;;;;;3.15;100.00;99222.34;5048938;28;20507;-52
2022/11/22 06:32:34;;;;;;;11.98;2.95;;;;;;;3.13;100.00;99218.97;5051535;28;20037;-53
2022/11/22 06:35:00;;;;;;;13.63;3.28;;;;;;;3.12;100.00;99222.56;5052098;28;20017;-51
2022/11/22 06:37:26;;;;;;;9.40;2.95;;;;;;;3.10;100.00;99220.03;5051903;28;20103;-52
2022/11/22 06:39:51;;;;;;;11.20;3.33;;;;;;;3.10;100.00;99229.69;5043338;28;20171;-52
2022/11/22 06:42:17;;;;;;;14.93;3.28;;;;;;;3.09;100.00;99244.56;5050224;28;20467;-52
2022/11/22 06:44:42;;;;;;;13.80;3.53;;;;;;;3.08;100.00;99231.56;5051337;28;20114;-51
2022/11/22 06:47:09;;;;;;;13.20;3.38;;;;;;;3.06;100.00;99236.09;5051625;28;20754;-51
2022/11/22 06:49:34;;;;;;;13.70;3.90;;;;;;;3.06;100.00;99236.94;5044541;28;20039;-51
2022/11/22 06:51:59;;;;;;;14.15;3.58;;;;;;;3.07;100.00;99240.41;5056381;28;20577;-51
2022/11/22 06:54:25;;;;;;;14.55;3.75;;;;;;;3.09;100.00;99243.75;5045427;28;20052;-51
2022/11/22 06:56:50;;;;;;;16.92;3.38;;;;;;;3.08;100.00;99242.94;5067668;28;20021;-54
2022/11/22 06:59:16;;;;;;;12.95;3.55;;;;;;;3.11;100.00;99250.56;5057383;28;20045;-51
2022/11/22 07:01:41;;;;;;;12.27;3.38;;;;;;;3.12;100.00;99248.78;5053136;28;20071;-51
2022/11/22 07:04:07;;;;;;;13.52;3.33;;;;;;;3.14;100.00;99260.81;5051283;28;20099;-49
2022/11/22 07:06:35;;;;;;;13.73;3.28;;;;;;;3.16;100.00;99263.34;5052047;28;20056;-49
2022/11/22 07:09:04;;;;;;;14.23;3.38;;;;;;;3.19;100.00;99264.94;5052076;28;20033;-50
2022/11/22 07:11:30;;;;;;;11.48;3.38;;;;;;;3.20;100.00;99264.81;5051831;28;20389;-49
2022/11/22 07:13:57;;;;;;;13.27;3.20;;;;;;;3.22;100.00;99262.91;5033797;28;20045;-52
2022/11/22 07:16:22;;;;;;;13.57;3.20;;;;;;;3.23;100.00;99256.72;5044587;28;20025;-50
2022/11/22 07:18:48;;;;;;;12.25;3.40;;;;;;;3.27;100.00;99258.16;5044547;28;20033;-50
2022/11/22 07:21:20;;;;;;;12.13;2.90;;;;;;;3.29;100.00;99256.28;5048484;28;20044;-50
2022/11/22 07:23:48;;;;;;;12.90;3.72;;;;;;;3.32;100.00;99252.59;5047929;28;20033;-50
2022/11/22 07:26:15;;;;;;;20.52;3.90;;;;;;;3.36;100.00;99256.66;5046528;28;20099;-52
2022/11/22 07:28:41;;;;;;;17.58;3.47;;;;;;;3.39;100.00;99256.44;5039222;28;20120;-50
2022/11/22 07:31:09;;;;;;;16.30;3.65;;;;;;;3.43;100.00;99254.44;5043821;28;20527;-51
2022/11/22 07:33:34;;;;;;;9.40;3.15;;;;;;;3.47;100.00;99264.59;5049323;28;20433;-50
2022/11/22 07:36:08;;;;;;;13.98;3.58;;;;;;;3.50;100.00;99261.75;5051210;28;20033;-49
2022/11/22 07:38:33;;;;;;;14.35;3.20;;;;;;;3.54;100.00;99265.00;5053536;28;20056;-53
2022/11/22 07:40:59;;;;;;;8.77;3.15;;;;;;;3.57;100.00;99261.31;5052370;28;20069;-50
2022/11/22 07:43:24;;;;;;;13.57;3.50;;;;;;;3.62;100.00;99269.69;5048860;28;20029;-49
2022/11/22 07:45:50;;;;;;;10.38;3.00;;;;;;;3.65;100.00;99261.59;5048800;28;20450;-50
2022/11/22 07:48:15;;;;;;;13.35;3.70;;;;;;;3.67;100.00;99255.28;5049389;28;20049;-50
2022/11/22 07:50:43;;;;;;;12.10;3.60;;;;;;;3.70;100.00;99264.72;5069531;22;20053;-87
2022/11/22 07:53:09;;;;;;;12.03;2.63;;;;;;;3.70;100.00;99265.56;5056426;28;20434;-87
2022/11/22 07:56:10;;;;;;;10.27;2.67;;;;;;;3.77;100.00;99265.13;5062212;28;20279;-88
2022/11/22 07:58:42;;;;;;;9.05;2.83;;;;;;;3.77;100.00;99268.56;5049395;28;20063;-87
2022/11/22 08:01:38;;;;;;;19.38;2.97;;;;;;;3.84;100.00;99271.59;5056125;28;20033;-87
2022/11/22 08:07:53;;;;;;;11.55;2.35;;;;;;;3.84;100.00;99261.91;5041753;28;20044;-87
2022/11/22 08:10:27;;;;;;;10.57;2.78;;;;;;;3.91;100.00;99274.59;5056276;28;20093;-88
2022/11/22 08:12:56;;;;;;;16.27;3.50;;;;;;;3.92;100.00;99274.47;5057626;28;20475;-88
2022/11/22 08:15:22;;;;;;;9.05;2.75;;;;;;;3.94;100.00;99262.06;5058752;28;20036;-88
2022/11/22 08:17:50;;;;;;;9.95;3.00;;;;;;;3.97;100.00;99264.47;5068379;28;20024;-87
2022/11/22 08:20:20;;;;;;;11.57;3.00;;;;;;;4.02;100.00;99277.25;5067888;28;20459;-88
2022/11/22 08:22:46;;;;;;;11.45;2.95;;;;;;;4.03;100.00;99274.53;5071889;28;20021;-88
2022/11/22 08:25:12;;;;;;;12.98;2.70;;;;;;;4.06;100.00;99273.44;5063278;28;20029;-88
2022/11/22 08:27:39;;;;;;;15.70;2.97;;;;;;;4.10;100.00;99277.53;5057829;28;20025;-88
2022/11/22 08:30:07;;;;;;;12.70;3.00;;;;;;;4.09;100.00;99270.59;5057338;28;20017;-88
2022/11/22 08:32:33;;;;;;;9.35;2.78;;;;;;;4.09;100.00;99273.22;5056693;28;20483;-89
2022/11/22 08:35:03;;;;;;;12.45;3.00;;;;;;;4.20;100.00;99280.31;5056464;28;20028;-88
2022/11/22 08:37:29;;;;;;;8.93;2.38;;;;;;;4.16;100.00;99269.16;5056636;28;20090;-89
2022/11/22 08:40:57;;;;;;;;;;;;;;;;;;;;;
2022/11/22 08:43:23;;;;;;;;;;;;;;;4.31;100.00;99282.94;5056562;28;20035;-89
2022/11/22 08:46:15;;;;;;;9.27;2.60;;;;;;;4.24;100.00;99285.19;5054722;28;19980;-89
2022/11/22 08:49:12;;;;;;;6.10;2.13;;;;;;;4.30;100.00;99283.06;5054439;28;20036;-88
2022/11/22 08:51:47;;;;;;;9.77;2.50;;;;;;;4.33;100.00;99278.44;5034585;28;20029;-88
2022/11/22 08:54:30;;;;;;;9.20;2.30;;;;;;;4.39;100.00;99282.38;5051803;28;20387;-88
2022/11/22 08:56:59;;;;;;;7.93;2.67;;;;;;;4.41;100.00;99286.56;5049343;28;20036;-88
2022/11/22 08:59:24;;;;;;;10.23;2.60;;;;;;;4.46;100.00;99280.94;5041567;28;20485;-88
2022/11/22 09:01:56;;;;;;;10.82;2.60;;;;;;;4.49;100.00;99285.97;5053857;28;20025;-88
2022/11/22 09:04:22;;;;;;;9.77;2.72;;;;;;;4.50;100.00;99285.03;5054010;28;20112;-88
2022/11/22 09:06:48;;;;;;;13.15;3.25;;;;;;;4.54;100.00;99285.63;5053625;28;20115;-89
2022/11/22 09:09:13;;;;;;;8.63;3.17;;;;;;;4.54;100.00;99286.44;5054288;28;20450;-88
2022/11/22 09:11:41;;;;;;;8.73;2.80;;;;;;;4.54;100.00;99290.88;5054067;28;20052;-87
2022/11/22 09:14:07;;;;;;;15.02;3.00;;;;;;;4.59;100.00;99291.38;5054579;28;20037;-88
2022/11/22 09:16:33;;;;;;;16.73;3.60;;;;;;;4.66;100.00;99297.00;5054275;28;20036;-87
2022/11/22 09:18:58;;;;;;;10.20;2.63;;;;;;;4.68;100.00;99292.44;5054345;28;20426;-87
2022/11/22 09:21:36;;;;;;;13.88;3.45;;;;;;;4.69;100.00;99286.25;5054557;28;20116;-88
2022/11/22 09:24:02;;;;;;;12.90;3.38;;;;;;;4.69;100.00;99283.59;5048094;28;20429;-87
2022/11/22 09:26:29;;;;;;;11.85;3.33;;;;;;;4.79;100.00;99293.28;5055838;28;20031;-88
2022/11/22 09:28:56;;;;;;;9.32;2.88;;;;;;;4.78;100.00;99294.25;5054595;28;20063;-88
2022/11/22 09:31:22;;;;;;;10.52;2.60;;;;;;;4.84;100.00;99295.56;5054419;28;20021;-88
2022/11/22 09:33:54;;;;;;;7.65;2.80;;;;;;;4.88;100.00;99304.91;5054159;28;20379;-87
2022/11/22 09:36:22;;;;;;;8.63;2.63;;;;;;;4.87;100.00;99292.69;5055138;28;20041;-88
2022/11/22 09:38:48;;;;;;;7.18;2.70;;;;;;;4.97;100.00;99304.19;5054862;28;20021;-88
2022/11/22 09:41:43;;;;;;;7.30;2.53;;;;;;;5.00;100.00;99298.69;5071528;28;20032;-87
2022/11/22 09:44:45;;;;;;;14.93;2.90;;;;;;;5.06;100.00;99302.63;5000240;28;20042;-88
2022/11/22 09:47:31;;;;;;;7.50;2.35;;;;;;;5.06;100.00;99299.16;5043437;28;20104;-87
2022/11/22 09:50:30;;;;;;;8.35;2.40;;;;;;;5.07;100.00;99292.94;5058235;28;20048;-87
2022/11/22 09:53:03;;;;;;;7.18;2.30;;;;;;;5.14;100.00;99294.94;5065865;28;20102;-88
2022/11/22 09:55:43;;;;;;;8.18;2.58;;;;;;;5.17;100.00;99289.44;5053684;28;20049;-87
2022/11/22 09:58:26;;;;;;;7.78;2.17;;;;;;;5.25;100.00;99306.44;5053031;28;20028;-88
2022/11/22 10:01:17;;;;;;;6.15;2.33;;;;;;;5.23;100.00;99295.19;5054252;28;20036;-85
2022/11/22 10:03:48;;;;;;;3.60;2.03;;;;;;;5.26;100.00;99314.22;5053053;28;20112;-88
2022/11/22 10:06:21;;;;;;;6.28;2.13;;;;;;;5.25;100.00;99304.66;5052925;28;20383;-88
2022/11/22 10:09:26;;;;;;;7.18;2.00;;;;;;;5.28;100.00;99307.03;5052891;28;20040;-88
2022/11/22 10:12:10;;;;;;;4.32;2.00;;;;;;;5.31;100.00;99306.81;5052376;28;20029;-88
2022/11/22 10:15:14;;;;;;;8.98;2.40;;;;;;;5.29;100.00;99300.81;5053568;28;20016;-88
2022/11/22 10:17:48;;;;;;;5.78;2.00;;;;;;;5.31;100.00;99301.53;5053838;28;20025;-88
2022/11/22 10:20:24;;;;;;;4.75;2.17;;;;;;;5.32;100.00;99299.72;5053744;28;20095;-89
2022/11/22 10:22:50;;;;;;;6.00;2.33;;;;;;;5.27;100.00;99288.72;5053109;28;20394;-88
2022/11/22 10:25:40;;;;;;;6.65;2.28;;;;;;;5.29;100.00;99298.16;5056717;28;20017;-88
2022/11/22 10:28:27;;;;;;;4.53;2.10;;;;;;;5.31;100.00;99293.63;5056671;28;20033;-88
2022/11/22 10:31:08;;;;;;;7.20;2.15;;;;;;;5.32;100.00;99290.03;5058008;28;20132;-88
2022/11/22 10:33:56;;;;;;;5.15;2.03;;;;;;;5.33;100.00;99289.09;5056929;28;20041;-88
2022/11/22 10:36:50;;;;;;;6.22;2.17;;;;;;;5.34;100.00;99279.38;5055207;28;20036;-89
2022/11/22 10:39:40;;;;;;;5.22;2.03;;;;;;;5.34;100.00;99282.00;5055189;28;20426;-88
2022/11/22 10:42:38;;;;;;;7.88;2.10;;;;;;;5.37;100.00;99268.59;5057094;28;20079;-88
2022/11/22 10:45:18;;;;;;;6.88;2.00;;;;;;;5.38;100.00;99278.19;5066613;28;20036;-88
2022/11/22 10:47:52;;;;;;;4.25;2.15;;;;;;;5.47;100.00;99287.13;5053289;28;20033;-89
2022/11/22 10:50:52;;;;;;;4.70;2.42;;;;;;;5.51;100.00;99283.28;5052888;28;20079;-89
2022/11/22 10:53:25;;;;;;;4.65;2.15;;;;;;;5.50;100.00;99269.28;5054116;28;20364;-89
2022/11/22 10:56:03;;;;;;;5.88;2.05;;;;;;;5.53;100.00;99271.69;5053718;28;20029;-89
2022/11/22 10:59:03;;;;;;;5.00;2.40;;;;;;;5.59;100.00;99272.97;5070290;28;20459;-89
2022/11/22 11:02:03;;;;;;;6.15;1.90;;;;;;;5.61;100.00;99271.03;5070269;28;20021;-89
2022/11/22 11:04:36;;;;;;;3.28;1.70;;;;;;;5.65;100.00;99267.22;5033443;28;20029;-89
2022/11/22 11:07:04;;;;;;;5.82;1.95;;;;;;;5.65;100.00;99255.84;5033290;28;20052;-88
2022/11/22 11:09:41;;;;;;;5.13;1.88;;;;;;;5.74;99.61;99265.63;5036766;28;20099;-88
2022/11/22 11:12:59;;;;;;;3.17;1.65;;;;;;;5.75;99.32;99257.59;5036503;28;20032;-88
2022/11/22 11:15:41;;;;;;;3.47;1.58;;;;;;;5.74;99.05;99247.19;5046685;28;20362;-88
2022/11/22 11:18:14;;;;;;;4.93;1.70;;;;;;;5.79;99.21;99257.34;5047407;28;20040;-88
2022/11/22 11:20:42;;;;;;;6.80;2.00;;;;;;;5.80;99.23;99253.75;5056729;28;20048;-88
2022/11/22 11:23:11;;;;;;;4.65;1.70;;;;;;;5.82;98.93;99247.38;5056146;28;20044;-89
2022/11/22 11:25:42;;;;;;;6.40;1.87;;;;;;;5.85;98.70;99239.22;5045547;28;20036;-87
2022/11/22 11:28:18;;;;;;;3.75;1.50;;;;;;;5.88;98.69;99235.53;5056778;28;20025;-87
2022/11/22 11:31:17;;;;;;;2.70;1.73;;;;;;;5.88;98.25;99231.06;5057455;28;20619;-86
2022/11/22 11:33:44;;;;;;;2.95;1.20;;;;;;;5.93;97.83;99228.91;5035178;28;20060;-86
2022/11/22 11:36:12;;;;;;;5.50;2.22;;;;;;;5.98;97.00;99236.47;5059175;28;20355;-88
2022/11/22 11:38:43;;;;;;;3.90;1.60;;;;;;;6.00;96.92;99231.06;5058633;28;20532;-87
2022/11/22 11:41:28;;;;;;;7.55;1.70;;;;;;;6.03;97.54;99236.91;5060886;28;20041;-86
2022/11/22 11:43:58;;;;;;;2.92;1.40;;;;;;;5.98;96.54;99225.06;5058944;28;20487;-87
2022/11/22 11:46:26;;;;;;;3.60;1.98;;;;;;;6.00;96.78;99229.25;5059467;28;20128;-86
2022/11/22 11:49:08;;;;;;;3.33;1.40;;;;;;;6.00;97.07;99223.97;5059024;28;20029;-86
2022/11/22 11:51:42;;;;;;;2.50;1.73;;;;;;;6.06;97.09;99231.38;5059758;28;20036;-87
2022/11/22 11:54:18;;;;;;;4.38;1.77;;;;;;;6.08;96.71;99236.53;5074603;28;20021;-86
2022/11/22 11:56:56;;;;;;;4.65;1.40;;;;;;;6.08;95.81;99224.19;5057077;28;20414;-86
2022/11/22 11:59:29;;;;;;;2.08;1.20;;;;;;;6.08;95.68;99223.34;5057108;28;20107;-86
2022/11/22 12:02:02;;;;;;;3.85;1.52;;;;;;;6.15;95.93;99234.22;5056736;28;20045;-86